createdAt,value
2023-01-21T00:01:02.742Z,14.93
2023-01-21T00:03:30.629Z,18.03
2023-01-21T00:05:58.487Z,14.30
2023-01-21T00:08:26.574Z,24.35
2023-01-21T00:10:54.532Z,12.75
2023-01-21T00:13:22.315Z,14.73
2023-01-21T00:15:50.104Z,16.77
2023-01-21T00:18:20.442Z,13.38
2023-01-21T00:20:48.289Z,21.93
2023-01-21T00:23:16.118Z,18.92
2023-01-21T00:25:43.865Z,17.67
2023-01-21T00:28:11.614Z,20.00
2023-01-21T00:30:39.692Z,18.80
2023-01-21T00:33:07.437Z,18.67
2023-01-21T00:35:35.107Z,16.42
2023-01-21T00:38:02.811Z,17.97
2023-01-21T00:40:30.572Z,16.85
2023-01-21T00:42:58.310Z,19.65
2023-01-21T00:45:26.140Z,15.77
2023-01-21T00:47:53.905Z,16.30
2023-01-21T00:50:21.754Z,18.90
2023-01-21T00:52:49.450Z,22.10
2023-01-21T00:55:17.257Z,19.13
2023-01-21T00:57:45.046Z,16.13
2023-01-21T01:00:15.298Z,15.00
2023-01-21T01:02:43.265Z,14.70
2023-01-21T01:05:11.086Z,15.63
2023-01-21T01:07:41.303Z,16.88
2023-01-21T01:10:09.355Z,22.77
2023-01-21T01:12:37.039Z,18.85
2023-01-21T01:15:05.097Z,14.60
2023-01-21T01:17:32.950Z,18.53
2023-01-21T01:20:00.612Z,21.95
2023-01-21T01:22:28.455Z,15.05
2023-01-21T01:24:56.134Z,20.02
2023-01-21T01:27:23.861Z,26.00
2023-01-21T01:29:51.604Z,18.55
2023-01-21T01:32:19.362Z,22.60
2023-01-21T01:34:47.123Z,19.10
2023-01-21T01:37:14.857Z,21.15
2023-01-21T01:39:43.200Z,17.15
2023-01-21T01:42:15.921Z,19.73
2023-01-21T01:44:56.260Z,20.50
2023-01-21T01:47:24.759Z,18.50
2023-01-21T01:49:52.388Z,28.88
2023-01-21T01:52:20.170Z,18.80
2023-01-21T01:54:49.219Z,16.25
2023-01-21T01:57:17.295Z,19.25
2023-01-21T01:59:44.985Z,25.00
2023-01-21T02:02:13.751Z,17.55
2023-01-21T02:04:45.692Z,16.05
2023-01-21T02:07:13.451Z,24.70
2023-01-21T02:09:41.344Z,24.17
2023-01-21T02:12:09.140Z,18.65
2023-01-21T02:14:42.929Z,17.77
2023-01-21T02:17:22.846Z,23.80
2023-01-21T02:19:50.568Z,23.13
2023-01-21T02:22:30.646Z,23.75
2023-01-21T02:25:07.876Z,20.30
2023-01-21T02:27:55.849Z,20.10
2023-01-21T02:30:23.574Z,24.13
2023-01-21T02:32:51.297Z,28.70
2023-01-21T02:35:24.857Z,21.13
2023-01-21T02:37:55.692Z,20.33
2023-01-21T02:40:32.361Z,20.13
2023-01-21T02:43:04.251Z,18.73
2023-01-21T02:45:55.389Z,21.88
2023-01-21T02:48:29.231Z,21.20
2023-01-21T02:50:57.021Z,22.00
2023-01-21T02:53:29.878Z,18.63
2023-01-21T02:55:58.665Z,23.40
2023-01-21T02:58:28.578Z,18.97
2023-01-21T03:00:56.514Z,23.90
2023-01-21T03:03:41.424Z,20.20
2023-01-21T03:06:18.675Z,16.40
2023-01-21T03:08:51.201Z,17.77
2023-01-21T03:11:19.542Z,25.55
2023-01-21T03:14:05.831Z,19.80
2023-01-21T03:16:54.246Z,25.17
2023-01-21T03:19:21.954Z,36.22
2023-01-21T03:21:50.117Z,25.17
2023-01-21T03:24:17.873Z,37.83
2023-01-21T03:26:47.018Z,34.47
2023-01-21T03:29:15.842Z,21.38
2023-01-21T03:31:44.042Z,13.25
2023-01-21T03:34:12.706Z,16.40
2023-01-21T03:36:43.228Z,23.50
2023-01-21T03:39:22.717Z,21.85
2023-01-21T03:41:53.011Z,22.83
2023-01-21T03:44:20.735Z,23.50
2023-01-21T03:47:00.876Z,22.05
2023-01-21T03:49:28.632Z,19.57
2023-01-21T03:51:57.531Z,21.75
2023-01-21T03:54:25.280Z,18.60
2023-01-21T03:56:53.022Z,15.88
2023-01-21T03:59:20.816Z,18.03
2023-01-21T04:01:48.703Z,13.02
2023-01-21T04:04:16.504Z,15.35
2023-01-21T04:06:44.163Z,13.00
2023-01-21T04:09:11.968Z,25.67
2023-01-21T04:11:39.841Z,23.15
2023-01-21T04:14:07.653Z,19.07
2023-01-21T04:16:35.394Z,5.75
2023-01-21T04:19:03.231Z,14.18
2023-01-21T04:21:30.970Z,15.40
2023-01-21T04:23:58.734Z,16.87
2023-01-21T04:26:26.408Z,18.13
2023-01-21T04:28:54.183Z,15.77
2023-01-21T04:31:22.135Z,17.97
2023-01-21T04:33:49.994Z,16.23
2023-01-21T04:36:17.752Z,17.27
2023-01-21T04:38:45.453Z,17.07
2023-01-21T04:41:13.260Z,19.13
2023-01-21T04:43:40.954Z,21.08
2023-01-21T04:46:09.470Z,22.23
2023-01-21T04:48:40.132Z,19.70
2023-01-21T04:51:08.146Z,21.63
2023-01-21T04:53:35.911Z,22.08
2023-01-21T04:56:03.647Z,22.43
2023-01-21T04:58:31.438Z,22.33
2023-01-21T05:00:59.304Z,17.63
2023-01-21T05:03:28.035Z,23.23
2023-01-21T05:05:55.714Z,18.38
2023-01-21T05:08:23.448Z,21.30
2023-01-21T05:10:51.171Z,23.35
2023-01-21T05:13:20.807Z,20.33
2023-01-21T05:15:48.554Z,16.95
2023-01-21T05:18:16.326Z,24.88
2023-01-21T05:20:44.088Z,22.20
2023-01-21T05:23:11.971Z,23.17
2023-01-21T05:25:39.726Z,26.38
2023-01-21T05:28:09.197Z,23.63
2023-01-21T05:30:39.965Z,17.83
2023-01-21T05:33:08.141Z,26.20
2023-01-21T05:35:35.940Z,25.48
2023-01-21T05:38:04.694Z,20.30
2023-01-21T05:40:32.884Z,22.67
2023-01-21T05:43:00.559Z,20.00
2023-01-21T05:45:28.394Z,17.87
2023-01-21T05:47:56.089Z,23.90
2023-01-21T05:50:23.971Z,17.95
2023-01-21T05:52:51.747Z,20.77
2023-01-21T05:55:19.554Z,21.58
2023-01-21T05:57:47.334Z,23.17
2023-01-21T06:00:15.833Z,20.63
2023-01-21T06:02:44.085Z,23.27
2023-01-21T06:05:11.909Z,23.67
2023-01-21T06:07:39.692Z,21.27
2023-01-21T06:10:07.815Z,18.23
2023-01-21T06:12:35.552Z,23.95
2023-01-21T06:15:03.352Z,17.45
2023-01-21T06:17:31.053Z,19.13
2023-01-21T06:19:58.901Z,19.05
2023-01-21T06:22:26.598Z,29.25
2023-01-21T06:24:54.373Z,21.17
2023-01-21T06:27:22.095Z,14.53
2023-01-21T06:29:49.842Z,23.05
2023-01-21T06:32:19.916Z,18.15
2023-01-21T06:34:47.681Z,19.40
2023-01-21T06:37:15.403Z,20.65
2023-01-21T06:39:43.140Z,18.95
2023-01-21T06:42:10.903Z,18.63
2023-01-21T06:44:38.693Z,19.10
2023-01-21T06:47:06.534Z,20.13
2023-01-21T06:49:34.237Z,20.13
2023-01-21T06:52:02.215Z,26.23
2023-01-21T06:54:30.607Z,18.05
2023-01-21T06:56:58.441Z,18.27
2023-01-21T06:59:26.154Z,30.10
2023-01-21T07:01:54.034Z,16.33
2023-01-21T07:04:21.772Z,23.13
2023-01-21T07:06:50.652Z,22.87
2023-01-21T07:09:18.440Z,17.90
2023-01-21T07:11:46.304Z,26.10
2023-01-21T07:14:14.044Z,26.23
2023-01-21T07:16:41.804Z,20.70
2023-01-21T07:19:09.624Z,15.95
2023-01-21T07:21:37.361Z,15.80
2023-01-21T07:24:05.169Z,17.87
2023-01-21T07:26:36.325Z,20.15
2023-01-21T07:29:06.648Z,19.70
2023-01-21T07:31:34.742Z,21.43
2023-01-21T07:34:02.714Z,19.25
2023-01-21T07:36:30.422Z,18.88
2023-01-21T07:38:58.293Z,15.63
2023-01-21T07:41:26.081Z,18.50
2023-01-21T07:43:53.956Z,21.92
2023-01-21T07:46:21.934Z,20.17
2023-01-21T07:48:51.247Z,20.57
2023-01-21T07:51:19.626Z,19.52
2023-01-21T07:53:47.553Z,16.13
2023-01-21T07:56:16.362Z,16.93
2023-01-21T07:58:44.121Z,19.77
2023-01-21T08:01:12.387Z,24.73
2023-01-21T08:03:40.332Z,18.00
2023-01-21T08:06:08.218Z,15.50
2023-01-21T08:08:35.935Z,14.40
2023-01-21T08:11:03.758Z,19.48
2023-01-21T08:13:31.503Z,15.37
2023-01-21T08:15:59.360Z,18.77
2023-01-21T08:18:27.054Z,19.02
2023-01-21T08:20:58.256Z,24.40
2023-01-21T08:23:26.526Z,22.83
2023-01-21T08:25:54.528Z,24.25
2023-01-21T08:28:22.694Z,26.05
2023-01-21T08:30:50.626Z,30.60
2023-01-21T08:33:18.464Z,32.30
2023-01-21T08:35:46.230Z,28.73
2023-01-21T08:38:13.981Z,30.00
2023-01-21T08:40:41.780Z,28.98
2023-01-21T08:43:09.850Z,22.27
2023-01-21T08:45:37.657Z,19.07
2023-01-21T08:48:05.414Z,16.60
2023-01-21T08:50:35.494Z,16.15
2023-01-21T08:53:03.190Z,14.80
2023-01-21T08:55:30.944Z,19.90
2023-01-21T08:57:59.668Z,18.45
2023-01-21T09:00:28.531Z,19.83
2023-01-21T09:02:56.517Z,18.53
2023-01-21T09:05:24.258Z,13.57
2023-01-21T09:07:51.944Z,18.83
2023-01-21T09:10:38.892Z,19.13
2023-01-21T09:13:06.960Z,19.30
2023-01-21T09:15:43.503Z,20.63
2023-01-21T09:18:11.178Z,19.88
2023-01-21T09:20:39.909Z,17.30
2023-01-21T09:23:24.551Z,23.88
2023-01-21T09:25:59.599Z,16.98
2023-01-21T09:28:27.490Z,23.83
2023-01-21T09:30:59.212Z,21.92
2023-01-21T09:33:27.424Z,21.10
2023-01-21T09:35:55.866Z,20.43
2023-01-21T09:38:23.860Z,18.20
2023-01-21T09:40:51.617Z,17.08
2023-01-21T09:43:27.065Z,19.85
2023-01-21T09:45:55.211Z,19.30
2023-01-21T09:48:30.425Z,18.15
2023-01-21T09:50:58.249Z,18.77
2023-01-21T09:53:27.649Z,15.77
2023-01-21T09:55:55.355Z,14.50
2023-01-21T09:58:55.544Z,17.40
2023-01-21T10:01:24.697Z,14.63
2023-01-21T10:03:55.509Z,13.20
2023-01-21T10:06:26.437Z,14.88
2023-01-21T10:08:54.865Z,11.15
2023-01-21T10:11:51.966Z,11.03
2023-01-21T10:14:25.895Z,10.68
2023-01-21T10:17:04.672Z,18.15
2023-01-21T10:19:52.683Z,10.63
2023-01-21T10:22:21.697Z,10.57
2023-01-21T10:24:50.433Z,10.40
2023-01-21T10:27:19.671Z,10.17
2023-01-21T10:29:47.932Z,11.27
2023-01-21T10:32:17.103Z,12.35
2023-01-21T10:34:51.788Z,8.55
2023-01-21T10:37:31.522Z,10.87
2023-01-21T10:40:01.894Z,8.98
2023-01-21T10:42:32.679Z,8.70
2023-01-21T10:45:02.715Z,7.80
2023-01-21T10:47:48.119Z,14.73
2023-01-21T10:50:28.395Z,10.85
2023-01-21T10:52:56.080Z,10.80
2023-01-21T10:55:23.869Z,7.88
2023-01-21T10:57:54.533Z,15.55
2023-01-21T11:00:32.785Z,8.70
2023-01-21T11:03:05.388Z,8.57
2023-01-21T11:05:33.213Z,8.05
2023-01-21T11:08:01.149Z,5.72
2023-01-21T11:10:29.031Z,7.47
2023-01-21T11:12:56.909Z,7.30
2023-01-21T11:15:24.784Z,5.32
2023-01-21T11:17:59.780Z,4.80
2023-01-21T11:20:37.669Z,2.67
2023-01-21T11:23:06.197Z,4.50
2023-01-21T11:25:37.862Z,4.72
2023-01-21T11:28:06.012Z,3.60
2023-01-21T11:30:49.636Z,3.72
2023-01-21T11:33:26.255Z,4.75
2023-01-21T11:35:54.361Z,3.43
2023-01-21T11:38:43.313Z,4.45
2023-01-21T11:41:11.213Z,4.07
2023-01-21T11:44:08.209Z,3.20
2023-01-21T11:46:39.319Z,2.83
2023-01-21T11:49:09.799Z,4.30
2023-01-21T11:51:38.237Z,5.60
2023-01-21T11:54:09.595Z,5.13
2023-01-21T11:56:37.352Z,4.25
2023-01-21T11:59:25.446Z,3.40
2023-01-21T12:01:54.145Z,5.30
2023-01-21T12:04:22.000Z,4.57
2023-01-21T12:06:53.768Z,4.45
2023-01-21T12:09:21.615Z,2.53
2023-01-21T12:11:51.051Z,4.25
2023-01-21T12:14:24.966Z,4.20
2023-01-21T12:16:52.634Z,3.40
2023-01-21T12:19:26.354Z,5.33
2023-01-21T12:21:56.825Z,3.50
2023-01-21T12:24:35.120Z,3.53
2023-01-21T12:27:02.811Z,3.30
2023-01-21T12:29:39.463Z,4.78
2023-01-21T12:32:12.992Z,4.05
2023-01-21T12:34:44.936Z,3.37
2023-01-21T12:37:14.235Z,3.03
2023-01-21T12:39:46.694Z,4.03
2023-01-21T12:42:23.714Z,4.95
2023-01-21T12:44:55.278Z,4.80
2023-01-21T12:47:28.989Z,3.60
2023-01-21T12:49:59.680Z,1.70
2023-01-21T12:52:34.751Z,3.13
2023-01-21T12:55:05.904Z,2.10
2023-01-21T12:57:42.965Z,1.55
2023-01-21T13:00:21.682Z,1.23
2023-01-21T13:02:49.555Z,4.43
2023-01-21T13:05:19.238Z,3.30
2023-01-21T13:07:48.604Z,3.50
2023-01-21T13:10:20.597Z,3.43
2023-01-21T13:12:51.026Z,3.05
2023-01-21T13:15:21.041Z,3.78
2023-01-21T13:17:53.322Z,3.43
2023-01-21T13:20:21.774Z,5.00
2023-01-21T13:23:08.570Z,5.38
2023-01-21T13:25:44.573Z,3.10
2023-01-21T13:28:12.267Z,5.95
2023-01-21T13:30:46.196Z,5.85
2023-01-21T13:33:13.867Z,3.67
2023-01-21T13:35:44.088Z,4.37
2023-01-21T13:38:30.643Z,4.43
2023-01-21T13:41:01.367Z,4.03
2023-01-21T13:43:54.892Z,3.50
2023-01-21T13:46:35.340Z,4.15
2023-01-21T13:49:06.201Z,4.15
2023-01-21T13:51:40.033Z,2.83
2023-01-21T13:54:23.019Z,5.65
2023-01-21T13:56:50.762Z,3.55
2023-01-21T13:59:21.331Z,2.53
2023-01-21T14:01:49.078Z,4.47
2023-01-21T14:04:21.187Z,4.47
2023-01-21T14:07:05.707Z,3.60
2023-01-21T14:09:38.448Z,2.37
2023-01-21T14:12:08.511Z,2.72
2023-01-21T14:14:40.929Z,3.75
2023-01-21T14:17:14.939Z,4.33
2023-01-21T14:19:42.720Z,4.20
2023-01-21T14:22:22.688Z,4.60
2023-01-21T14:24:54.699Z,3.83
2023-01-21T14:27:28.512Z,3.63
2023-01-21T14:30:16.794Z,3.33
2023-01-21T14:32:50.041Z,3.00
2023-01-21T14:35:21.106Z,3.20
2023-01-21T14:38:07.517Z,4.05
2023-01-21T14:40:35.821Z,3.08
2023-01-21T14:43:03.541Z,3.60
2023-01-21T14:45:50.449Z,5.60
2023-01-21T14:48:30.198Z,5.22
2023-01-21T14:51:19.023Z,2.78
2023-01-21T14:53:47.772Z,4.10
2023-01-21T14:56:23.177Z,6.03
2023-01-21T14:58:52.605Z,5.22
2023-01-21T15:01:27.902Z,5.43
2023-01-21T15:03:56.714Z,3.50
2023-01-21T15:06:24.565Z,4.90
2023-01-21T15:08:53.276Z,5.47
2023-01-21T15:11:24.938Z,5.97
2023-01-21T15:14:13.100Z,3.67
2023-01-21T15:16:41.633Z,4.80
2023-01-21T15:19:09.471Z,4.87
2023-01-21T15:21:43.690Z,4.82
2023-01-21T15:24:23.393Z,4.03
2023-01-21T15:27:09.526Z,3.63
2023-01-21T15:29:37.914Z,4.55
2023-01-21T15:32:24.268Z,3.60
2023-01-21T15:34:52.891Z,3.70
2023-01-21T15:37:24.517Z,6.07
2023-01-21T15:39:56.919Z,6.45
2023-01-21T15:42:50.913Z,3.75
2023-01-21T15:45:23.883Z,7.37
2023-01-21T15:47:55.249Z,4.15
2023-01-21T15:50:24.070Z,4.95
2023-01-21T15:53:10.394Z,3.00
2023-01-21T15:55:53.228Z,2.47
2023-01-21T15:58:21.852Z,2.30
2023-01-21T16:01:09.970Z,2.73
2023-01-21T16:03:39.425Z,1.67
2023-01-21T16:06:07.168Z,3.42
2023-01-21T16:08:39.679Z,6.40
2023-01-21T16:11:19.885Z,1.37
2023-01-21T16:14:11.651Z,3.10
2023-01-21T16:16:59.046Z,1.55
2023-01-21T16:19:31.211Z,1.80
2023-01-21T16:22:00.015Z,2.92
2023-01-21T16:24:28.816Z,2.72
2023-01-21T16:26:58.635Z,3.57
2023-01-21T16:29:26.400Z,2.83
2023-01-21T16:32:04.171Z,1.95
2023-01-21T16:34:31.975Z,2.38
2023-01-21T16:36:59.834Z,6.53
2023-01-21T16:39:27.640Z,3.13
2023-01-21T16:42:02.579Z,2.08
2023-01-21T16:44:30.473Z,2.30
2023-01-21T16:46:58.271Z,2.17
2023-01-21T16:49:26.102Z,3.90
2023-01-21T16:51:56.554Z,1.77
2023-01-21T16:54:25.237Z,1.45
2023-01-21T16:56:52.931Z,2.25
2023-01-21T16:59:21.220Z,1.95
2023-01-21T17:01:49.423Z,2.30
2023-01-21T17:04:17.357Z,2.65
2023-01-21T17:06:45.425Z,2.72
2023-01-21T17:09:29.555Z,2.53
2023-01-21T17:11:57.663Z,4.47
2023-01-21T17:14:26.282Z,3.80
2023-01-21T17:16:54.438Z,2.87
2023-01-21T17:19:29.839Z,2.83
2023-01-21T17:21:59.253Z,3.90
2023-01-21T17:24:28.503Z,5.00
2023-01-21T17:26:57.861Z,3.53
2023-01-21T17:29:29.464Z,2.83
2023-01-21T17:31:58.141Z,2.78
2023-01-21T17:34:30.304Z,4.70
2023-01-21T17:36:58.097Z,3.17
2023-01-21T17:39:44.489Z,4.85
2023-01-21T17:42:21.163Z,4.73
2023-01-21T17:44:55.692Z,5.85
2023-01-21T17:47:54.176Z,3.60
2023-01-21T17:50:25.863Z,2.85
2023-01-21T17:53:01.755Z,6.27
2023-01-21T17:55:31.013Z,4.60
2023-01-21T17:58:01.007Z,6.53
2023-01-21T18:00:33.131Z,4.10
2023-01-21T18:03:00.936Z,5.15
2023-01-21T18:05:29.283Z,4.18
2023-01-21T18:07:57.013Z,6.53
2023-01-21T18:10:28.300Z,8.63
2023-01-21T18:12:58.057Z,3.40
2023-01-21T18:15:27.750Z,7.47
2023-01-21T18:18:02.023Z,4.03
2023-01-21T18:20:30.053Z,3.70
2023-01-21T18:22:58.312Z,2.83
2023-01-21T18:25:26.684Z,4.77
2023-01-21T18:27:58.707Z,3.92
2023-01-21T18:30:27.439Z,4.75
2023-01-21T18:32:55.344Z,5.13
2023-01-21T18:35:24.020Z,6.80
2023-01-21T18:38:21.977Z,5.20
2023-01-21T18:41:10.138Z,5.30
2023-01-21T18:43:58.089Z,7.00
2023-01-21T18:46:46.150Z,6.38
2023-01-21T18:49:34.142Z,4.38
2023-01-21T18:52:22.124Z,4.87
2023-01-21T18:55:10.485Z,4.53
2023-01-21T18:57:58.972Z,4.57
2023-01-21T19:00:50.505Z,3.97
2023-01-21T19:03:39.659Z,6.05
2023-01-21T19:06:27.774Z,5.15
2023-01-21T19:09:20.061Z,4.32
2023-01-21T19:12:10.091Z,5.60
2023-01-21T19:15:02.234Z,5.50
2023-01-21T19:17:50.292Z,7.47
2023-01-21T19:20:44.442Z,4.97
2023-01-21T19:23:32.417Z,5.82
2023-01-21T19:26:23.507Z,7.40
2023-01-21T19:29:21.693Z,4.80
2023-01-21T19:32:14.735Z,5.32
2023-01-21T19:34:57.992Z,7.15
2023-01-21T19:37:26.090Z,5.03
2023-01-21T19:39:53.871Z,5.77
2023-01-21T19:42:21.733Z,5.90
2023-01-21T19:44:49.519Z,4.88
2023-01-21T19:47:21.882Z,5.43
2023-01-21T19:49:51.293Z,5.13
2023-01-21T19:52:19.228Z,8.85
2023-01-21T19:54:48.428Z,4.57
2023-01-21T19:57:17.972Z,4.65
2023-01-21T19:59:45.835Z,6.80
2023-01-21T20:02:13.783Z,7.63
2023-01-21T20:04:41.582Z,6.60
2023-01-21T20:07:18.863Z,5.82
2023-01-21T20:09:49.876Z,3.58
2023-01-21T20:12:17.912Z,6.17
2023-01-21T20:14:45.692Z,5.40
2023-01-21T20:17:16.725Z,3.55
2023-01-21T20:19:44.517Z,5.43
2023-01-21T20:22:13.471Z,3.92
2023-01-21T20:24:45.568Z,3.88
2023-01-21T20:27:14.292Z,2.90
2023-01-21T20:29:49.505Z,4.37
2023-01-21T20:32:23.815Z,2.58
2023-01-21T20:34:51.643Z,2.78
2023-01-21T20:37:20.807Z,4.83
2023-01-21T20:39:51.819Z,4.50
2023-01-21T20:42:19.563Z,6.07
2023-01-21T20:44:47.394Z,3.63
2023-01-21T20:47:16.691Z,5.65
2023-01-21T20:49:44.561Z,4.45
2023-01-21T20:52:12.429Z,6.65
2023-01-21T20:54:40.495Z,4.33
2023-01-21T20:57:13.657Z,2.63
2023-01-21T20:59:41.485Z,4.88
2023-01-21T21:02:12.482Z,2.60
2023-01-21T21:04:40.631Z,2.72
2023-01-21T21:07:11.403Z,2.15
2023-01-21T21:09:39.940Z,4.83
2023-01-21T21:12:07.779Z,7.00
2023-01-21T21:14:35.475Z,3.83
2023-01-21T21:17:03.297Z,3.50
2023-01-21T21:19:31.017Z,2.73
2023-01-21T21:21:58.870Z,3.50
2023-01-21T21:24:30.026Z,1.92
2023-01-21T21:26:57.934Z,1.67
2023-01-21T21:29:25.725Z,1.92
2023-01-21T21:31:53.543Z,2.30
2023-01-21T21:34:24.093Z,1.93
2023-01-21T21:36:51.865Z,1.08
2023-01-21T21:39:19.970Z,2.13
2023-01-21T21:42:06.562Z,1.67
2023-01-21T21:44:34.424Z,1.23
2023-01-21T21:47:20.953Z,3.22
2023-01-21T21:49:48.750Z,3.22
2023-01-21T21:52:17.906Z,2.13
2023-01-21T21:54:45.771Z,1.88
2023-01-21T21:57:14.279Z,2.28
2023-01-21T21:59:42.990Z,5.83
2023-01-21T22:02:11.629Z,2.45
2023-01-21T22:04:39.544Z,1.73
2023-01-21T22:07:07.381Z,3.90
2023-01-21T22:09:35.221Z,1.00
2023-01-21T22:12:02.977Z,2.65
2023-01-21T22:14:30.843Z,2.55
2023-01-21T22:16:58.742Z,3.13
2023-01-21T22:19:26.763Z,2.42
2023-01-21T22:21:54.605Z,3.05
2023-01-21T22:24:22.371Z,2.60
2023-01-21T22:26:50.155Z,3.33
2023-01-21T22:29:17.932Z,4.05
2023-01-21T22:31:45.899Z,1.98
2023-01-21T22:34:13.748Z,4.97
2023-01-21T22:36:47.136Z,2.35
2023-01-21T22:39:14.922Z,2.97
2023-01-21T22:41:45.863Z,2.93
2023-01-21T22:44:13.612Z,4.47
2023-01-21T22:46:43.807Z,3.03
2023-01-21T22:49:11.937Z,5.50
2023-01-21T22:51:39.704Z,5.18
2023-01-21T22:54:07.784Z,5.65
2023-01-21T22:56:51.180Z,3.53
2023-01-21T22:59:19.736Z,3.00
2023-01-21T23:01:48.938Z,3.47
2023-01-21T23:04:17.910Z,5.70
2023-01-21T23:06:48.983Z,4.60
2023-01-21T23:09:16.901Z,6.82
2023-01-21T23:11:45.315Z,2.60
2023-01-21T23:14:13.234Z,2.50
2023-01-21T23:16:41.058Z,2.85
2023-01-21T23:19:09.150Z,3.33
2023-01-21T23:21:38.525Z,2.42
2023-01-21T23:24:06.964Z,4.57
2023-01-21T23:26:34.801Z,3.78
2023-01-21T23:29:02.547Z,2.20
2023-01-21T23:31:30.559Z,2.13
2023-01-21T23:33:58.864Z,2.53
2023-01-21T23:36:26.667Z,3.85
2023-01-21T23:38:54.370Z,3.17
2023-01-21T23:41:23.757Z,2.88
2023-01-21T23:43:51.453Z,3.63
2023-01-21T23:46:22.476Z,7.97
2023-01-21T23:48:50.218Z,3.80
2023-01-21T23:51:18.945Z,7.88
2023-01-21T23:53:49.151Z,6.78
2023-01-21T23:56:17.981Z,4.07
2023-01-21T23:58:45.697Z,4.07
